createdAt,value
2018-06-18T00:05:28.020Z,0.0
2018-06-18T00:15:42.175Z,0.0
2018-06-18T00:25:54.727Z,0.0
2018-06-18T00:46:25.036Z,0.0
2018-06-18T00:56:39.087Z,0.0
2018-06-18T01:06:51.508Z,0.0
2018-06-18T01:17:05.334Z,0.0
2018-06-18T01:27:19.694Z,0.0
2018-06-18T01:37:35.090Z,0.0
2018-06-18T01:47:49.369Z,0.0
2018-06-18T01:58:33.918Z,0.0
2018-06-18T02:08:58.302Z,0.0
2018-06-18T02:19:12.295Z,0.0
2018-06-18T02:29:24.313Z,0.0
2018-06-18T02:39:37.759Z,4.0
2018-06-18T02:49:51.974Z,12.0
2018-06-18T03:00:05.240Z,24.0
2018-06-18T03:10:19.191Z,40.0
2018-06-18T03:20:32.774Z,76.0
2018-06-18T03:30:49.633Z,120.0
2018-06-18T03:41:03.618Z,232.0
2018-06-18T03:51:50.087Z,312.0
2018-06-18T04:02:04.621Z,344.0
2018-06-18T04:12:16.502Z,520.0
2018-06-18T04:23:01.323Z,808.0
2018-06-18T04:33:15.544Z,1016.0
2018-06-18T04:43:30.159Z,916.0
2018-06-18T04:54:14.458Z,1664.0
2018-06-18T05:04:27.786Z,1016.0
2018-06-18T05:14:41.254Z,1468.0
2018-06-18T05:24:55.712Z,1668.0
2018-06-18T05:35:09.504Z,2264.0
2018-06-18T05:45:23.749Z,2552.0
2018-06-18T05:55:38.982Z,3052.0
2018-06-18T06:05:53.288Z,5788.0
2018-06-18T06:16:07.426Z,5324.0
2018-06-18T06:26:22.406Z,5168.0
2018-06-18T06:36:37.937Z,6408.0
2018-06-18T06:46:52.430Z,4156.0
2018-06-18T06:57:06.280Z,4828.0
2018-06-18T07:07:20.406Z,5916.0
2018-06-18T07:17:34.625Z,6904.0
2018-06-18T07:27:50.281Z,8668.0
2018-06-18T07:38:04.134Z,10232.0
2018-06-18T07:48:48.140Z,11176.0
2018-06-18T08:00:13.204Z,10044.0
2018-06-18T08:10:28.562Z,12608.0
2018-06-18T08:22:16.280Z,14128.0
2018-06-18T08:32:31.672Z,4984.0
2018-06-18T08:43:50.787Z,7964.0
2018-06-18T08:56:31.095Z,29792.0
2018-06-18T09:09:45.323Z,12612.0
2018-06-18T09:20:38.368Z,5724.0
2018-06-18T09:30:58.083Z,8520.0
2018-06-18T09:41:25.771Z,9584.0
2018-06-18T09:52:09.364Z,21248.0
2018-06-18T10:02:51.784Z,13108.0
2018-06-18T10:14:37.488Z,12228.0
2018-06-18T11:03:11.868Z,11228.0
2018-06-18T11:13:57.940Z,9112.0
2018-06-18T11:40:14.878Z,6504.0
2018-06-18T12:17:10.258Z,8812.0
2018-06-18T13:14:56.868Z,15648.0
2018-06-18T14:54:05.039Z,8880.0
2018-06-18T15:10:30.659Z,5956.0
2018-06-18T16:24:01.856Z,7156.0
2018-06-18T17:48:28.480Z,1608.0
2018-06-18T19:53:14.206Z,148.0
2018-06-18T20:20:07.409Z,8.0
2018-06-18T20:49:42.680Z,0.0
2018-06-18T20:59:56.590Z,0.0
2018-06-18T21:11:21.903Z,0.0
2018-06-18T21:21:36.479Z,0.0
2018-06-18T22:18:26.440Z,0.0
2018-06-18T22:28:38.074Z,0.0
2018-06-18T22:38:53.084Z,0.0
2018-06-18T23:23:07.686Z,0.0
2018-06-18T23:36:44.984Z,0.0
2018-06-18T23:49:42.479Z,0.0
